Portada
METAR-TAF:

METAR-TAF

Aeropuertos :

Mont-De-Marsan, Francia

latitud: 43-55N, longitud: 000-30W, altitud: 62 m

Observación

El informe se hizo hace 21 minutos, a las 11:00 UTC
Viento 5 kt del este-sureste
Temperatura 15°C
Humedad 59%
Presión 1014 hPa
Visibilidad 10 km o más
sin nubes por debajo de 1500 m y sin presencia de cumulonimbus.

METAR: LFBM 231100Z AUTO 12005KT CAVOK 15/07 Q1014 BECMG 24010KT

Hora: 12:21 (11:21 UTC)

Pronóstico

El informe se hizo hace 3 horas y 21 minutos, a las 08:00 UTC
Pronóstico válido del 23 a las 09 UTC al 24 a las 09 UTC
Viento 5 kt del este
Visibilidad 10 km o más
sin nubes por debajo de 1500 m y sin presencia de cumulonimbus.
Evolucionando progresivamente
del 23 a las 10 UTC al 23 a las 12 UTC
Viento 10 kt del oeste-suroeste
Evolucionando progresivamente
del 23 a las 16 UTC al 23 a las 18 UTC
Viento 10 kt del este

TAF: LFBM 230800Z 2309/2409 10005KT CAVOK BECMG 2310/2312 24010KT BECMG 2316/2318 10010KT

Observaciones y pronósticos meteorológicos de más de 4000 aeropuertos (mensajes METAR y TAF).

Los puntos amarillos y rojos representan las estaciones disponibles.

Ponga el ratón en el punto deseado para ver el nombre de la estación.

Haga clic para ver las observaciones y los pronósticos meteorológicos.

Para cambiar el mapa : haga clic en los botones verdes con una cruz de color negro para hacer un zoom, en el botón verde con un guión para alejar o en las flechas verdes para mapas adyacentes.


METAR-TAF: